Overpeck, Ohio
Current Conditions -  °F | °C
As of 4:33 AM on Thursday 27 Nov 2014 (Local Time) from KHAO Reporting Station
Overcast Overcast  
Wind Chill: 21°   Ceiling: 2700
Heat Index: 29°   Visibility: 8mi
Dew Point: 24°   Wind: 8mph
Humidity: 82%   Direction: 310°NW
Pressure: 30.14"   Gusts: NA
Location:  39.45°N, 84.51°W
Report Text: KHAO 270933Z AUTO 31007KT 8SM BKN027 OVC100 M02/M04 A3014 RMK AO2 T10171044
Loading
Personal Weather Stations






























Interactive Weather Map New forecast layout! Learn more

10-Day Weather Forecast

Advertisements
Track Severe Weather on mobile